createdAt,value
2023-12-05T00:00:01.035Z,10
2023-12-05T00:00:59.760Z,10.2
2023-12-05T00:02:01.063Z,10.2
2023-12-05T00:02:59.730Z,10.2
2023-12-05T00:04:01.131Z,10.3
2023-12-05T00:05:00.038Z,10.3
2023-12-05T00:05:58.859Z,10.3
2023-12-05T00:07:01.381Z,10.2
2023-12-05T00:08:00.036Z,10.3
2023-12-05T00:08:58.776Z,10.3
2023-12-05T00:10:01.125Z,10.4
2023-12-05T00:10:59.821Z,10.3
2023-12-05T00:12:01.053Z,10.3
2023-12-05T00:12:59.905Z,10.3
2023-12-05T00:13:58.900Z,10.2
2023-12-05T00:15:00.987Z,10.3
2023-12-05T00:15:59.744Z,10.5
2023-12-05T00:17:00.988Z,10.5
2023-12-05T00:17:59.646Z,10.5
2023-12-05T00:19:00.466Z,10.4
2023-12-05T00:19:59.291Z,10.4
2023-12-05T00:20:59.979Z,10.2
2023-12-05T00:21:58.644Z,10.3
2023-12-05T00:23:00.592Z,10.3
2023-12-05T00:23:59.269Z,10.3
2023-12-05T00:25:00.239Z,10.3
2023-12-05T00:25:58.985Z,10.4
2023-12-05T00:26:59.697Z,10.4
2023-12-05T00:28:00.978Z,10.4
2023-12-05T00:28:59.720Z,10.4
2023-12-05T00:30:00.981Z,10.4
2023-12-05T00:30:59.635Z,10.5
2023-12-05T00:32:00.398Z,10.5
2023-12-05T00:32:59.129Z,10.4
2023-12-05T00:33:59.947Z,10.4
2023-12-05T00:34:59.148Z,10.5
2023-12-05T00:36:00.261Z,10.5
2023-12-05T00:36:59.385Z,10.4
2023-12-05T00:38:00.089Z,10.4
2023-12-05T00:38:58.753Z,10.5
2023-12-05T00:40:01.045Z,10.6
2023-12-05T00:40:59.677Z,10.5
2023-12-05T00:42:00.412Z,10.6
2023-12-05T00:42:59.081Z,10.5
2023-12-05T00:44:00.133Z,10.5
2023-12-05T00:44:58.798Z,10.6
2023-12-05T00:46:00.975Z,10.6
2023-12-05T00:46:59.736Z,10.6
2023-12-05T00:48:01.476Z,10.6
2023-12-05T00:49:00.239Z,10.6
2023-12-05T00:49:59.246Z,10.6
2023-12-05T00:51:03.649Z,10.6
2023-12-05T00:51:59.996Z,10.6
2023-12-05T00:52:58.897Z,10.6
2023-12-05T00:54:00.983Z,10.6
2023-12-05T00:54:59.714Z,10.6
2023-12-05T00:56:07.965Z,10.5
2023-12-05T00:57:01.038Z,10.4
2023-12-05T00:57:59.781Z,10.5
2023-12-05T00:59:01.055Z,10.6
2023-12-05T01:00:00.086Z,10.5
2023-12-05T01:01:09.566Z,10.6
2023-12-05T01:02:00.413Z,10.5
2023-12-05T01:02:59.196Z,10.7
2023-12-05T01:04:00.311Z,10.6
2023-12-05T01:04:59.259Z,10.7
2023-12-05T01:06:13.761Z,10.7
2023-12-05T01:07:01.017Z,10.8
2023-12-05T01:07:59.758Z,10.8
2023-12-05T01:09:01.001Z,10.7
2023-12-05T01:09:59.838Z,10.8
2023-12-05T01:11:16.375Z,10.8
2023-12-05T01:12:01.410Z,10.9
2023-12-05T01:13:00.115Z,10.9
2023-12-05T01:13:58.764Z,10.9
2023-12-05T01:15:00.212Z,10.8
2023-12-05T01:15:58.891Z,10.8
2023-12-05T01:16:59.777Z,10.8
2023-12-05T01:18:01.482Z,10.9
2023-12-05T01:19:00.360Z,10.8
2023-12-05T01:19:59.112Z,10.8
2023-12-05T01:21:00.357Z,10.7
2023-12-05T01:21:59.032Z,10.6
2023-12-05T01:22:59.768Z,10.5
2023-12-05T01:24:01.302Z,10.5
2023-12-05T01:24:59.971Z,10.6
2023-12-05T01:25:58.920Z,10.5
2023-12-05T01:26:59.885Z,10.4
2023-12-05T01:28:01.138Z,10.5
2023-12-05T01:28:59.909Z,10.3
2023-12-05T01:30:01.163Z,10.4
2023-12-05T01:31:00.223Z,10.3
2023-12-05T01:31:58.894Z,10.4
2023-12-05T01:33:01.126Z,10.4
2023-12-05T01:34:00.003Z,10.4
2023-12-05T01:34:59.131Z,10.4
2023-12-05T01:35:59.840Z,10.4
2023-12-05T01:37:01.394Z,10.5
2023-12-05T01:38:00.055Z,10.5
2023-12-05T01:38:58.715Z,10.5
2023-12-05T01:40:00.999Z,10.5
2023-12-05T01:40:59.770Z,10.4
2023-12-05T01:41:58.839Z,10.5
2023-12-05T01:42:59.900Z,10.5
2023-12-05T01:44:01.011Z,10.5
2023-12-05T01:44:59.829Z,10.4
2023-12-05T01:46:01.160Z,10.5
2023-12-05T01:46:59.812Z,10.7
2023-12-05T01:48:01.159Z,10.7
2023-12-05T01:49:02.049Z,10.6
2023-12-05T01:50:00.519Z,10.6
2023-12-05T01:50:59.298Z,10.7
2023-12-05T01:52:00.207Z,10.7
2023-12-05T01:52:59.025Z,10.8
2023-12-05T01:53:59.763Z,10.7
2023-12-05T01:55:01.263Z,10.7
2023-12-05T01:55:59.957Z,10.7
2023-12-05T01:56:58.645Z,10.7
2023-12-05T01:58:00.379Z,10.7
2023-12-05T01:58:59.065Z,10.7
2023-12-05T01:59:59.698Z,10.7
2023-12-05T02:01:00.998Z,10.7
2023-12-05T02:02:00.006Z,10.9
2023-12-05T02:02:58.689Z,10.8
2023-12-05T02:04:00.094Z,10.8
2023-12-05T02:04:58.993Z,10.7
2023-12-05T02:05:59.736Z,10.6
2023-12-05T02:07:00.947Z,10.8
2023-12-05T02:07:59.618Z,10.9
2023-12-05T02:09:00.983Z,10.9
2023-12-05T02:09:59.641Z,10.8
2023-12-05T02:11:00.349Z,10.9
2023-12-05T02:11:59.015Z,10.9
2023-12-05T02:12:59.757Z,10.9
2023-12-05T02:13:59.562Z,11
2023-12-05T02:15:00.272Z,10.8
2023-12-05T02:15:58.949Z,10.8
2023-12-05T02:16:59.780Z,10.9
2023-12-05T02:18:01.401Z,10.8
2023-12-05T02:19:00.246Z,10.7
2023-12-05T02:19:59.010Z,10.7
2023-12-05T02:20:59.708Z,10.7
2023-12-05T02:22:01.052Z,10.7
2023-12-05T02:22:59.909Z,10.8
2023-12-05T02:24:01.143Z,10.8
2023-12-05T02:24:59.767Z,10.7
2023-12-05T02:26:01.347Z,10.6
2023-12-05T02:27:02.496Z,10.7
2023-12-05T02:28:00.380Z,10.7
2023-12-05T02:28:59.142Z,10.7
2023-12-05T02:29:59.856Z,10.7
2023-12-05T02:31:00.993Z,10.7
2023-12-05T02:32:05.398Z,10.7
2023-12-05T02:32:59.747Z,10.8
2023-12-05T02:34:01.339Z,10.8
2023-12-05T02:35:00.145Z,10.8
2023-12-05T02:35:58.860Z,10.8
2023-12-05T02:37:08.303Z,10.8
2023-12-05T02:38:00.000Z,10.8
2023-12-05T02:38:59.701Z,10.7
2023-12-05T02:40:00.956Z,10.8
2023-12-05T02:40:59.627Z,10.8
2023-12-05T02:42:09.648Z,10.8
2023-12-05T02:43:00.234Z,10.8
2023-12-05T02:43:59.039Z,10.8
2023-12-05T02:45:00.271Z,10.7
2023-12-05T02:46:08.599Z,10.8
2023-12-05T02:47:11.738Z,10.8
2023-12-05T02:47:59.740Z,10.8
2023-12-05T02:48:59.802Z,10.9
2023-12-05T02:50:01.026Z,10.8
2023-12-05T02:50:59.686Z,10.9
2023-12-05T02:52:13.845Z,11
2023-12-05T02:53:00.458Z,11
2023-12-05T02:53:59.173Z,11.1
2023-12-05T02:55:00.236Z,11.1
2023-12-05T02:55:59.437Z,11.2
2023-12-05T02:57:00.080Z,11.2
2023-12-05T02:57:58.841Z,11.3
2023-12-05T02:59:00.363Z,11.2
2023-12-05T02:59:59.051Z,11.3
2023-12-05T03:00:59.784Z,11.3
2023-12-05T03:02:01.085Z,11.4
2023-12-05T03:02:59.756Z,11.5
2023-12-05T03:04:01.450Z,11.4
2023-12-05T03:05:01.171Z,11.4
2023-12-05T03:05:59.924Z,11.4
2023-12-05T03:06:58.721Z,11.4
2023-12-05T03:08:01.048Z,11.3
2023-12-05T03:09:01.423Z,11.4
2023-12-05T03:10:00.326Z,11.3
2023-12-05T03:11:03.778Z,11.3
2023-12-05T03:12:00.142Z,11.3
2023-12-05T03:12:59.227Z,11.3
2023-12-05T03:13:59.961Z,11.4
2023-12-05T03:14:58.930Z,11.4
2023-12-05T03:15:59.621Z,11.4
2023-12-05T03:16:58.990Z,11.5
2023-12-05T03:17:59.846Z,11.5
2023-12-05T03:18:58.746Z,11.5
2023-12-05T03:20:00.312Z,11.4
2023-12-05T03:20:58.990Z,11.3
2023-12-05T03:22:00.010Z,11.2
2023-12-05T03:22:58.778Z,11.4
2023-12-05T03:24:01.073Z,11.5
2023-12-05T03:25:00.155Z,11.4
2023-12-05T03:25:59.617Z,11.4
2023-12-05T03:27:01.193Z,11.4
2023-12-05T03:27:59.939Z,11.3
2023-12-05T03:28:59.018Z,11.4
2023-12-05T03:29:59.721Z,11.5
2023-12-05T03:30:58.956Z,11.5
2023-12-05T03:31:59.632Z,11.4
2023-12-05T03:33:01.314Z,11.4
2023-12-05T03:33:59.854Z,11.4
2023-12-05T03:34:58.832Z,11.5
2023-12-05T03:36:01.006Z,11.5
2023-12-05T03:36:59.681Z,11.5
2023-12-05T03:38:01.022Z,11.5
2023-12-05T03:38:59.700Z,11.6
2023-12-05T03:39:59.008Z,11.4
2023-12-05T03:40:59.631Z,11.5
2023-12-05T03:41:58.794Z,11.5
2023-12-05T03:43:00.959Z,11.6
2023-12-05T03:43:59.606Z,11.6
2023-12-05T03:45:00.640Z,11.4
2023-12-05T03:45:59.308Z,11.4
2023-12-05T03:46:59.949Z,11.6
2023-12-05T03:47:59.378Z,11.6
2023-12-05T03:49:00.134Z,11.7
2023-12-05T03:49:58.923Z,11.6
2023-12-05T03:50:59.661Z,11.5
2023-12-05T03:51:58.910Z,11.4
2023-12-05T03:53:01.006Z,11.5
2023-12-05T03:53:59.677Z,11.4
2023-12-05T03:54:58.984Z,11.4
2023-12-05T03:55:59.712Z,11.5
2023-12-05T03:57:01.051Z,11.4
2023-12-05T03:57:59.696Z,11.4
2023-12-05T03:58:58.989Z,11.3
2023-12-05T03:59:59.706Z,11.3
2023-12-05T04:01:01.087Z,11.3
2023-12-05T04:01:59.820Z,11.3
2023-12-05T04:03:00.758Z,11.4
2023-12-05T04:03:59.591Z,11.4
2023-12-05T04:05:01.139Z,11.3
2023-12-05T04:05:59.792Z,11.2
2023-12-05T04:07:01.064Z,11.2
2023-12-05T04:08:04.084Z,11.3
2023-12-05T04:08:59.784Z,11.1
2023-12-05T04:10:01.140Z,11.2
2023-12-05T04:10:59.988Z,11.3
2023-12-05T04:11:58.659Z,11.3
2023-12-05T04:13:06.057Z,11.4
2023-12-05T04:13:59.804Z,11.3
2023-12-05T04:15:00.949Z,11.1
2023-12-05T04:15:59.603Z,11.3
2023-12-05T04:17:04.728Z,11.3
2023-12-05T04:18:09.026Z,11
2023-12-05T04:19:01.069Z,11
2023-12-05T04:19:59.852Z,11
2023-12-05T04:20:59.122Z,11
2023-12-05T04:22:00.761Z,11
2023-12-05T04:23:10.931Z,11
2023-12-05T04:24:01.015Z,11.1
2023-12-05T04:24:59.712Z,11.1
2023-12-05T04:26:01.025Z,11.1
2023-12-05T04:26:59.670Z,11
2023-12-05T04:28:13.820Z,10.9
2023-12-05T04:29:00.102Z,11
2023-12-05T04:29:58.768Z,11
2023-12-05T04:31:01.063Z,11.1
2023-12-05T04:31:59.818Z,11.1
2023-12-05T04:33:16.830Z,11.1
2023-12-05T04:34:00.120Z,11.1
2023-12-05T04:34:58.904Z,11.3
2023-12-05T04:36:00.963Z,11.1
2023-12-05T04:36:59.681Z,11.1
2023-12-05T04:38:01.634Z,11.1
2023-12-05T04:39:00.356Z,11.1
2023-12-05T04:39:59.098Z,11.1
2023-12-05T04:40:59.775Z,11
2023-12-05T04:42:01.428Z,11.1
2023-12-05T04:43:00.077Z,11.1
2023-12-05T04:43:58.759Z,11
2023-12-05T04:45:01.034Z,11
2023-12-05T04:45:59.878Z,11
2023-12-05T04:46:58.815Z,11
2023-12-05T04:48:01.093Z,10.9
2023-12-05T04:48:59.915Z,11
2023-12-05T04:49:59.205Z,10.9
2023-12-05T04:50:59.928Z,10.9
2023-12-05T04:52:01.830Z,11
2023-12-05T04:53:01.470Z,10.9
2023-12-05T04:54:00.056Z,11
2023-12-05T04:54:58.782Z,10.9
2023-12-05T04:56:00.997Z,10.9
2023-12-05T04:56:59.989Z,10.9
2023-12-05T04:57:59.352Z,10.9
2023-12-05T04:59:00.093Z,10.9
2023-12-05T04:59:58.866Z,10.8
2023-12-05T05:01:01.086Z,10.9
2023-12-05T05:01:59.856Z,10.8
2023-12-05T05:03:01.097Z,10.7
2023-12-05T05:04:02.548Z,10.7
2023-12-05T05:05:00.133Z,10.6
2023-12-05T05:05:58.947Z,10.6
2023-12-05T05:06:59.673Z,10.7
2023-12-05T05:08:01.320Z,10.9
2023-12-05T05:09:00.036Z,10.7
2023-12-05T05:09:58.698Z,10.8
2023-12-05T05:11:00.993Z,10.8
2023-12-05T05:11:59.749Z,10.9
2023-12-05T05:13:01.010Z,10.7
2023-12-05T05:14:01.255Z,10.6
2023-12-05T05:14:59.737Z,10.7
2023-12-05T05:16:01.374Z,10.8
2023-12-05T05:17:00.069Z,10.7
2023-12-05T05:17:59.005Z,10.7
2023-12-05T05:19:00.202Z,10.8
2023-12-05T05:19:59.015Z,10.9
2023-12-05T05:20:59.714Z,10.8
2023-12-05T05:21:58.775Z,10.8
2023-12-05T05:23:00.971Z,10.9
2023-12-05T05:23:59.776Z,10.9
2023-12-05T05:25:01.544Z,10.9
2023-12-05T05:26:00.047Z,10.9
2023-12-05T05:26:58.816Z,11
2023-12-05T05:27:59.843Z,10.9
2023-12-05T05:28:58.748Z,10.9
2023-12-05T05:30:01.042Z,10.8
2023-12-05T05:30:59.918Z,10.8
2023-12-05T05:31:58.626Z,10.8
2023-12-05T05:33:00.483Z,10.8
2023-12-05T05:33:59.993Z,10.9
2023-12-05T05:34:59.728Z,10.9
2023-12-05T05:36:01.051Z,10.8
2023-12-05T05:36:59.750Z,10.8
2023-12-05T05:38:00.425Z,10.8
2023-12-05T05:38:59.229Z,10.7
2023-12-05T05:39:59.898Z,10.7
2023-12-05T05:40:58.607Z,10.8
2023-12-05T05:42:00.364Z,10.7
2023-12-05T05:42:59.431Z,10.7
2023-12-05T05:44:00.263Z,10.7
2023-12-05T05:44:59.152Z,10.7
2023-12-05T05:45:59.807Z,10.8
2023-12-05T05:46:59.304Z,10.8
2023-12-05T05:48:00.098Z,10.8
2023-12-05T05:48:59.013Z,10.8
2023-12-05T05:50:59.079Z,10.8
2023-12-05T05:51:59.795Z,10.7
2023-12-05T05:53:00.748Z,10.7
2023-12-05T05:54:01.930Z,10.6
2023-12-05T05:55:00.994Z,10.6
2023-12-05T05:55:59.623Z,10.7
2023-12-05T05:57:00.351Z,10.7
2023-12-05T05:57:59.023Z,10.7
2023-12-05T05:59:04.357Z,10.6
2023-12-05T05:59:59.960Z,10.6
2023-12-05T06:00:59.183Z,10.6
2023-12-05T06:01:59.886Z,10.6
2023-12-05T06:02:59.145Z,10.5
2023-12-05T06:04:05.980Z,10.4
2023-12-05T06:05:00.200Z,10.4
2023-12-05T06:05:59.305Z,10.4
2023-12-05T06:07:00.179Z,10.4
2023-12-05T06:07:58.837Z,10.4
2023-12-05T06:09:10.058Z,10.4
2023-12-05T06:09:59.963Z,10.5
2023-12-05T06:10:58.605Z,10.4
2023-12-05T06:12:00.243Z,10.3
2023-12-05T06:12:58.958Z,10.2
2023-12-05T06:14:11.715Z,10.2
2023-12-05T06:15:00.945Z,10.3
2023-12-05T06:15:59.716Z,10.4
2023-12-05T06:17:00.986Z,10.4
2023-12-05T06:17:59.754Z,10.4
2023-12-05T06:19:15.855Z,10.4
2023-12-05T06:20:01.126Z,10.4
2023-12-05T06:20:59.779Z,10.3
2023-12-05T06:22:01.016Z,10.3
2023-12-05T06:22:59.699Z,10.3
2023-12-05T06:24:01.488Z,10.3
2023-12-05T06:25:00.606Z,10.3
2023-12-05T06:25:59.539Z,10.2
2023-12-05T06:27:00.217Z,10.3
2023-12-05T06:27:58.930Z,10.3
2023-12-05T06:29:00.449Z,10.2
2023-12-05T06:30:03.546Z,10
2023-12-05T06:31:00.206Z,9.9
2023-12-05T06:31:58.927Z,9.8
2023-12-05T06:32:59.694Z,9.9
2023-12-05T06:34:01.183Z,10
2023-12-05T06:34:59.880Z,10
2023-12-05T06:36:01.011Z,10
2023-12-05T06:36:59.685Z,9.9
2023-12-05T06:38:01.254Z,10
2023-12-05T06:38:59.895Z,10.1
2023-12-05T06:40:01.077Z,10
2023-12-05T06:40:59.812Z,10
2023-12-05T06:42:01.141Z,10
2023-12-05T06:42:59.843Z,10
2023-12-05T06:44:00.968Z,10.2
2023-12-05T06:44:59.855Z,10
2023-12-05T06:46:01.353Z,10
2023-12-05T06:47:00.037Z,10
2023-12-05T06:47:58.859Z,10
2023-12-05T06:49:01.052Z,10
2023-12-05T06:49:59.727Z,10
2023-12-05T06:51:01.023Z,10
2023-12-05T06:51:59.662Z,10
2023-12-05T06:53:00.396Z,10.1
2023-12-05T06:53:59.198Z,10.1
2023-12-05T06:54:59.979Z,10.1
2023-12-05T06:55:58.691Z,10.1
2023-12-05T06:57:01.039Z,10.1
2023-12-05T06:57:59.977Z,10.1
2023-12-05T06:58:58.748Z,10
2023-12-05T07:00:00.998Z,10
2023-12-05T07:00:59.780Z,10.1
2023-12-05T07:01:58.747Z,10.1
2023-12-05T07:03:01.059Z,10.1
2023-12-05T07:04:00.063Z,10.2
2023-12-05T07:05:00.193Z,10.2
2023-12-05T07:05:59.201Z,10.3
2023-12-05T07:07:00.042Z,10.2
2023-12-05T07:07:58.827Z,10.2
2023-12-05T07:08:59.899Z,10.4
2023-12-05T07:10:01.139Z,10.4
2023-12-05T07:11:00.196Z,10.3
2023-12-05T07:11:58.883Z,10.4
2023-12-05T07:13:01.253Z,10.4
2023-12-05T07:14:00.021Z,10.4
2023-12-05T07:14:58.698Z,10.4
2023-12-05T07:16:00.968Z,10.4
2023-12-05T07:16:59.600Z,10.4
2023-12-05T07:18:00.346Z,10.3
2023-12-05T07:18:59.283Z,10.4
2023-12-05T07:20:00.186Z,10.5
2023-12-05T07:20:59.234Z,10.5
2023-12-05T07:22:00.273Z,10.5
2023-12-05T07:22:59.105Z,10.5
2023-12-05T07:24:01.284Z,10.5
2023-12-05T07:24:59.941Z,10.6
2023-12-05T07:25:58.685Z,10.6
2023-12-05T07:27:00.444Z,10.6
2023-12-05T07:27:59.172Z,10.6
2023-12-05T07:29:00.035Z,10.6
2023-12-05T07:29:58.847Z,10.7
2023-12-05T07:31:01.050Z,10.6
2023-12-05T07:31:59.748Z,10.5
2023-12-05T07:33:01.113Z,10.7
2023-12-05T07:34:00.143Z,10.6
2023-12-05T07:35:00.849Z,10.6
2023-12-05T07:35:59.645Z,10.5
2023-12-05T07:37:00.406Z,10.5
2023-12-05T07:37:59.144Z,10.5
2023-12-05T07:38:59.943Z,10.5
2023-12-05T07:40:03.731Z,10.5
2023-12-05T07:40:59.680Z,10.6
2023-12-05T07:42:00.397Z,10.5
2023-12-05T07:42:59.066Z,10.5
2023-12-05T07:43:59.786Z,10.5
2023-12-05T07:45:06.774Z,10.5
2023-12-05T07:46:00.040Z,10.5
2023-12-05T07:46:58.908Z,10.5
2023-12-05T07:48:00.390Z,10.6
2023-12-05T07:48:59.287Z,10.5
2023-12-05T07:50:08.411Z,10.6
2023-12-05T07:51:00.069Z,10.7
2023-12-05T07:51:58.736Z,10.7
2023-12-05T07:53:00.987Z,10.7
2023-12-05T07:53:59.800Z,10.6
2023-12-05T07:55:13.781Z,10.6
2023-12-05T07:56:01.054Z,10.6
2023-12-05T07:56:59.865Z,10.7
2023-12-05T07:58:01.090Z,10.7
2023-12-05T07:58:59.907Z,10.7
2023-12-05T08:00:16.088Z,10.7
2023-12-05T08:01:01.351Z,10.7
2023-12-05T08:02:00.186Z,10.5
2023-12-05T08:02:58.946Z,10.6
2023-12-05T08:03:59.909Z,10.5
2023-12-05T08:04:58.786Z,10.5
2023-12-05T08:06:01.054Z,10.5
2023-12-05T08:06:59.941Z,10.5
2023-12-05T08:07:58.565Z,10.6
2023-12-05T08:09:00.315Z,10.7
2023-12-05T08:09:59.043Z,10.6
2023-12-05T08:10:59.673Z,10.5
2023-12-05T08:11:58.924Z,10.4
2023-12-05T08:13:01.082Z,10.5
2023-12-05T08:13:59.782Z,10.3
2023-12-05T08:15:01.023Z,10.4
2023-12-05T08:15:59.725Z,10.5
2023-12-05T08:17:00.007Z,10.4
2023-12-05T08:17:59.641Z,10.5
2023-12-05T08:18:59.139Z,10.5
2023-12-05T08:20:00.055Z,10.5
2023-12-05T08:20:58.805Z,10.5
2023-12-05T08:22:00.965Z,10.4
2023-12-05T08:22:59.632Z,10.4
2023-12-05T08:24:00.353Z,10.5
2023-12-05T08:24:59.042Z,10.4
2023-12-05T08:25:59.672Z,10.2
2023-12-05T08:27:00.621Z,10.2
2023-12-05T08:27:59.382Z,10.4
2023-12-05T08:29:00.055Z,10.5
2023-12-05T08:29:58.742Z,10.5
2023-12-05T08:31:01.055Z,10.3
2023-12-05T08:31:59.796Z,10.4
2023-12-05T08:33:01.077Z,10.5
2023-12-05T08:34:00.209Z,10.4
2023-12-05T08:34:59.165Z,10.2
2023-12-05T08:36:00.288Z,10.2
2023-12-05T08:36:59.027Z,10.3
2023-12-05T08:38:00.470Z,10.1
2023-12-05T08:38:59.216Z,10.1
2023-12-05T08:40:00.213Z,10
2023-12-05T08:40:59.036Z,9.8
2023-12-05T08:41:59.931Z,9.9
2023-12-05T08:42:58.993Z,10.1
2023-12-05T08:44:01.001Z,9.8
2023-12-05T08:44:59.660Z,9.9
2023-12-05T08:45:59.448Z,10
2023-12-05T08:47:00.232Z,10
2023-12-05T08:47:59.298Z,9.8
2023-12-05T08:49:00.272Z,9.6
2023-12-05T08:49:59.108Z,9.6
2023-12-05T08:51:00.296Z,9.4
2023-12-05T08:51:59.020Z,9.5
2023-12-05T08:52:59.717Z,9.6
2023-12-05T08:54:00.951Z,9.6
2023-12-05T08:55:00.019Z,9.5
2023-12-05T08:55:58.817Z,9.5
2023-12-05T08:57:00.987Z,9.6
2023-12-05T08:57:59.662Z,9.6
2023-12-05T08:59:00.372Z,9.7
2023-12-05T08:59:59.034Z,9.4
2023-12-05T09:00:59.811Z,9.2
2023-12-05T09:02:01.059Z,9.3
2023-12-05T09:02:59.767Z,9.2
2023-12-05T09:04:01.247Z,9.4
2023-12-05T09:05:00.391Z,9.2
2023-12-05T09:05:59.227Z,9
2023-12-05T09:07:00.016Z,9
2023-12-05T09:07:58.918Z,9.1
2023-12-05T09:09:00.018Z,9
2023-12-05T09:09:58.892Z,8.9
2023-12-05T09:11:00.968Z,9
2023-12-05T09:11:59.727Z,9
2023-12-05T09:13:01.290Z,8.9
2023-12-05T09:13:59.995Z,9
2023-12-05T09:14:58.797Z,9
2023-12-05T09:16:01.015Z,8.8
2023-12-05T09:16:59.668Z,8.9
2023-12-05T09:18:00.464Z,9
2023-12-05T09:18:59.479Z,8.7
2023-12-05T09:20:00.335Z,8.6
2023-12-05T09:21:01.341Z,8.8
2023-12-05T09:22:00.286Z,8.8
2023-12-05T09:23:01.738Z,8.6
2023-12-05T09:24:00.031Z,8.3
2023-12-05T09:24:58.779Z,8.1
2023-12-05T09:26:03.818Z,8.3
2023-12-05T09:27:00.959Z,8.3
2023-12-05T09:27:59.844Z,8.2
2023-12-05T09:29:01.153Z,8.3
2023-12-05T09:29:59.844Z,8.3
2023-12-05T09:31:06.609Z,8.4
2023-12-05T09:32:00.625Z,8.4
2023-12-05T09:32:59.506Z,8
2023-12-05T09:34:00.462Z,8
2023-12-05T09:34:59.143Z,8
2023-12-05T09:36:08.659Z,8
2023-12-05T09:36:59.785Z,8
2023-12-05T09:38:01.029Z,7.8
2023-12-05T09:39:00.003Z,7.8
2023-12-05T09:39:58.840Z,7.8
2023-12-05T09:41:11.193Z,7.9
2023-12-05T09:42:00.073Z,7.8
2023-12-05T09:42:59.049Z,7.9
2023-12-05T09:43:59.788Z,7.8
2023-12-05T09:45:00.969Z,7.7
2023-12-05T09:46:14.385Z,7.6
2023-12-05T09:46:59.656Z,7.6
2023-12-05T09:48:01.080Z,7.7
2023-12-05T09:48:59.869Z,7.6
2023-12-05T09:49:58.961Z,7.6
2023-12-05T09:50:59.859Z,7.5
2023-12-05T09:52:01.090Z,7.4
2023-12-05T09:52:59.876Z,7.5
2023-12-05T09:54:01.018Z,7.8
2023-12-05T09:54:59.719Z,7.7
2023-12-05T09:56:01.046Z,7.8
2023-12-05T09:56:59.727Z,7.4
2023-12-05T09:58:01.088Z,7.5
2023-12-05T09:58:59.848Z,7.4
2023-12-05T10:00:01.045Z,7.6
2023-12-05T10:00:59.712Z,7.6
2023-12-05T10:02:01.046Z,7.5
2023-12-05T10:03:00.165Z,7.3
2023-12-05T10:03:59.017Z,7.2
2023-12-05T10:04:59.884Z,7.1
2023-12-05T10:05:58.650Z,7.3
2023-12-05T10:07:00.442Z,7.2
2023-12-05T10:07:59.162Z,7
2023-12-05T10:09:00.178Z,7
2023-12-05T10:09:59.013Z,7
2023-12-05T10:10:59.791Z,6.8
2023-12-05T10:12:00.964Z,6.9
2023-12-05T10:12:59.800Z,7.1
2023-12-05T10:14:01.247Z,6.9
2023-12-05T10:15:00.334Z,6.8
2023-12-05T10:15:59.244Z,7
2023-12-05T10:16:59.926Z,7.3
2023-12-05T10:18:01.089Z,7
2023-12-05T10:19:00.139Z,6.9
2023-12-05T10:19:59.113Z,7.2
2023-12-05T10:20:59.920Z,7
2023-12-05T10:22:01.206Z,7
2023-12-05T10:22:59.870Z,7.1
2023-12-05T10:24:01.226Z,6.9
2023-12-05T10:25:00.102Z,6.8
2023-12-05T10:25:58.866Z,7
2023-12-05T10:27:00.939Z,6.8
2023-12-05T10:27:59.605Z,6.8
2023-12-05T10:29:00.244Z,6.9
2023-12-05T10:29:59.154Z,7
2023-12-05T10:30:59.859Z,7.2
2023-12-05T10:32:01.125Z,7.3
2023-12-05T10:33:00.002Z,7.4
2023-12-05T10:33:58.863Z,7.1
2023-12-05T10:35:01.390Z,7.2
2023-12-05T10:36:00.242Z,7.2
2023-12-05T10:36:59.020Z,7.3
2023-12-05T10:37:59.716Z,7.1
2023-12-05T10:39:01.100Z,7.3
2023-12-05T10:40:00.006Z,7.2
2023-12-05T10:40:58.903Z,7.3
2023-12-05T10:42:01.168Z,7.2
2023-12-05T10:42:59.914Z,7.4
2023-12-05T10:43:58.710Z,7.5
2023-12-05T10:45:01.037Z,7.4
2023-12-05T10:45:59.777Z,7.3
2023-12-05T10:47:01.190Z,7.7
2023-12-05T10:48:00.001Z,7.6
2023-12-05T10:48:58.828Z,7.6
2023-12-05T10:50:01.007Z,7.4
2023-12-05T10:50:59.660Z,7.5
2023-12-05T10:52:01.422Z,7.6
2023-12-05T10:53:00.224Z,7.6
2023-12-05T10:53:58.959Z,7.8
2023-12-05T10:55:00.214Z,7.5
2023-12-05T10:55:59.114Z,7.4
2023-12-05T10:56:59.766Z,7.6
2023-12-05T10:58:01.110Z,7.5
2023-12-05T10:59:00.023Z,7.6
2023-12-05T10:59:58.767Z,7.6
2023-12-05T11:01:01.187Z,7.7
2023-12-05T11:02:03.975Z,7.7
2023-12-05T11:02:59.934Z,8
2023-12-05T11:04:01.094Z,8
2023-12-05T11:05:00.067Z,8
2023-12-05T11:06:00.658Z,7.9
2023-12-05T11:07:06.656Z,8
2023-12-05T11:07:59.937Z,8.2
2023-12-05T11:08:58.749Z,8.5
2023-12-05T11:10:01.174Z,8.2
2023-12-05T11:10:59.935Z,8.5
2023-12-05T11:12:08.838Z,8.5
2023-12-05T11:12:59.983Z,8.5
2023-12-05T11:13:58.700Z,8.5
2023-12-05T11:15:00.443Z,8.5
2023-12-05T11:15:59.152Z,8.9
2023-12-05T11:17:11.594Z,8.8
2023-12-05T11:18:01.483Z,8.8
2023-12-05T11:19:00.382Z,9.1
2023-12-05T11:19:59.109Z,9.2
2023-12-05T11:20:59.839Z,9.3
2023-12-05T11:22:15.427Z,9.3
2023-12-05T11:23:01.325Z,9.3
2023-12-05T11:24:00.073Z,9.3
2023-12-05T11:24:58.975Z,9.6
2023-12-05T11:25:59.775Z,9.8
2023-12-05T11:27:01.063Z,10
2023-12-05T11:27:59.846Z,10.4
2023-12-05T11:29:01.011Z,10.6
2023-12-05T11:29:59.772Z,10.7
2023-12-05T11:31:01.332Z,10.9
2023-12-05T11:32:00.127Z,11.2
2023-12-05T11:32:58.927Z,11.5
2023-12-05T11:33:59.992Z,11.6
2023-12-05T11:34:58.945Z,11.6
2023-12-05T11:35:59.828Z,11.9
2023-12-05T11:37:01.116Z,12.1
2023-12-05T11:37:59.842Z,12.3
2023-12-05T11:39:01.021Z,12.6
2023-12-05T11:39:59.819Z,12.9
2023-12-05T11:41:00.986Z,13.3
2023-12-05T11:41:59.752Z,13.5
2023-12-05T11:43:01.036Z,13.7
2023-12-05T11:43:59.734Z,14.1
2023-12-05T11:45:01.129Z,14.2
2023-12-05T11:45:59.885Z,14.3
2023-12-05T11:47:01.112Z,14.7
2023-12-05T11:47:59.836Z,14.9
2023-12-05T11:49:01.315Z,15.1
2023-12-05T11:50:00.047Z,15.1
2023-12-05T11:50:58.786Z,15.3
2023-12-05T11:52:01.133Z,15.5
2023-12-05T11:52:59.842Z,15.8
2023-12-05T11:54:00.977Z,16.1
2023-12-05T11:55:02.427Z,16.3
2023-12-05T11:55:59.695Z,16.4
2023-12-05T11:57:03.782Z,16.7
2023-12-05T11:57:59.905Z,16.9
2023-12-05T11:59:01.384Z,17.2
2023-12-05T12:00:00.077Z,17.4
2023-12-05T12:01:01.329Z,17.9
2023-12-05T12:02:00.270Z,18.3
2023-12-05T12:02:59.044Z,18.4
2023-12-05T12:03:59.875Z,18.8
2023-12-05T12:05:01.093Z,19.3
2023-12-05T12:05:59.810Z,19.5
2023-12-05T12:07:01.713Z,19.7
2023-12-05T12:08:01.446Z,20
2023-12-05T12:09:00.182Z,20.5
2023-12-05T12:09:59.059Z,21.2
2023-12-05T12:10:59.762Z,21.8
2023-12-05T12:12:00.968Z,22.6
2023-12-05T12:13:01.959Z,23.5
2023-12-05T12:14:00.093Z,24.4
2023-12-05T12:14:58.840Z,25.3
2023-12-05T12:16:01.084Z,26.3
2023-12-05T12:16:59.856Z,26.8
2023-12-05T12:18:01.366Z,27.3
2023-12-05T12:19:00.222Z,27.8
2023-12-05T12:19:59.126Z,28.4
2023-12-05T12:20:59.898Z,28.6
2023-12-05T12:22:02.895Z,29.1
2023-12-05T12:23:01.202Z,29.7
2023-12-05T12:24:00.671Z,30.1
2023-12-05T12:24:59.425Z,30.1
2023-12-05T12:26:00.349Z,30.1
2023-12-05T12:26:59.168Z,30.1
2023-12-05T12:27:59.855Z,30.1
2023-12-05T12:29:01.733Z,30.1
2023-12-05T12:29:59.975Z,30.5
2023-12-05T12:30:58.946Z,30.7
2023-12-05T12:31:59.666Z,30.9
2023-12-05T12:33:00.787Z,31.3
2023-12-05T12:33:59.636Z,31.5
2023-12-05T12:35:01.895Z,31.5
2023-12-05T12:36:00.421Z,31.9
2023-12-05T12:37:02.616Z,31.9
2023-12-05T12:37:59.788Z,32
2023-12-05T12:39:01.169Z,32.1
2023-12-05T12:40:00.149Z,32.3
2023-12-05T12:40:58.899Z,32.5
2023-12-05T12:42:00.963Z,32.8
2023-12-05T12:43:01.469Z,32.9
2023-12-05T12:43:59.639Z,33.2
2023-12-05T12:45:00.393Z,33.2
2023-12-05T12:45:59.102Z,33.3
2023-12-05T12:46:59.927Z,33.5
2023-12-05T12:48:04.187Z,33.5
2023-12-05T12:49:01.004Z,33.4
2023-12-05T12:50:00.036Z,33.3
2023-12-05T12:50:58.766Z,33.3
2023-12-05T12:52:01.400Z,33.4
2023-12-05T12:53:06.634Z,33.3
2023-12-05T12:54:01.368Z,33.4
2023-12-05T12:55:00.034Z,33.4
2023-12-05T12:55:58.686Z,33.4
2023-12-05T12:57:01.054Z,33.6
2023-12-05T12:58:09.093Z,33.7
2023-12-05T12:58:59.724Z,33.8
2023-12-05T13:00:30.144Z,33.8
2023-12-05T13:01:01.140Z,33.9
2023-12-05T13:01:59.914Z,33.9
2023-12-05T13:03:12.359Z,33.6
2023-12-05T13:03:59.734Z,33.4
2023-12-05T13:05:01.159Z,33.3
2023-12-05T13:06:00.074Z,33.2
2023-12-05T13:06:59.065Z,33
2023-12-05T13:08:13.765Z,32.3
2023-12-05T13:08:59.817Z,31.7
2023-12-05T13:09:58.632Z,31.8
2023-12-05T13:11:00.324Z,31.9
2023-12-05T13:11:58.978Z,31.8
2023-12-05T13:12:59.964Z,31.3
2023-12-05T13:13:58.815Z,31.1
2023-12-05T13:15:00.977Z,31
2023-12-05T13:15:59.768Z,30.4
2023-12-05T13:17:01.116Z,30.5
2023-12-05T13:18:00.091Z,30.5
2023-12-05T13:18:58.887Z,30.5
2023-12-05T13:20:01.054Z,30.5
2023-12-05T13:20:59.761Z,30.5
2023-12-05T13:22:01.508Z,30.6
2023-12-05T13:23:00.328Z,30.8
2023-12-05T13:23:58.984Z,31.2
2023-12-05T13:24:59.738Z,31.1
2023-12-05T13:26:01.025Z,31.2
2023-12-05T13:26:59.845Z,31.2
2023-12-05T13:27:58.860Z,31.2
2023-12-05T13:29:01.054Z,31.3
2023-12-05T13:30:00.376Z,31.5